createdAt,value
2017-07-10T00:00:15.445Z,93.90
2017-07-10T00:02:42.930Z,94.80
2017-07-10T00:05:10.435Z,94.30
2017-07-10T00:07:37.979Z,94.00
2017-07-10T00:10:05.499Z,94.30
2017-07-10T00:12:32.996Z,94.90
2017-07-10T00:15:00.500Z,94.80
2017-07-10T00:17:28.362Z,95.30
2017-07-10T00:19:55.871Z,95.60
2017-07-10T00:22:23.360Z,96.00
2017-07-10T00:24:50.888Z,95.60
2017-07-10T00:27:18.404Z,96.20
2017-07-10T00:29:46.181Z,96.30
2017-07-10T00:32:13.699Z,96.20
2017-07-10T00:34:41.209Z,95.70
2017-07-10T00:37:08.722Z,95.90
2017-07-10T00:39:36.228Z,95.40
2017-07-10T00:42:04.090Z,96.40
2017-07-10T00:44:31.595Z,97.00
2017-07-10T00:46:59.108Z,97.10
2017-07-10T00:49:26.628Z,97.20
2017-07-10T00:51:54.139Z,96.70
2017-07-10T00:54:21.984Z,96.30
2017-07-10T00:56:49.489Z,97.20
2017-07-10T00:59:17.002Z,97.50
2017-07-10T01:01:44.511Z,97.50
2017-07-10T01:04:12.016Z,98.20
2017-07-10T01:06:39.825Z,97.20
2017-07-10T01:09:07.332Z,98.10
2017-07-10T01:11:34.834Z,98.10
2017-07-10T01:14:02.356Z,98.00
2017-07-10T01:16:29.869Z,98.30
2017-07-10T01:18:57.683Z,98.30
2017-07-10T01:21:25.187Z,98.70
2017-07-10T01:23:52.686Z,98.20
2017-07-10T01:26:20.206Z,98.50
2017-07-10T01:28:47.712Z,98.30
2017-07-10T01:31:15.490Z,98.20
2017-07-10T01:33:43.009Z,98.10
2017-07-10T01:36:10.501Z,98.80
2017-07-10T01:38:38.374Z,98.30
2017-07-10T01:41:05.887Z,98.30
2017-07-10T01:43:33.387Z,98.50
2017-07-10T01:46:01.257Z,98.60
2017-07-10T01:48:28.768Z,99.10
2017-07-10T01:50:56.277Z,98.60
2017-07-10T01:53:23.795Z,99.00
2017-07-10T01:55:52.058Z,98.40
2017-07-10T01:58:19.584Z,98.40
2017-07-10T02:00:47.108Z,99.20
2017-07-10T02:03:14.991Z,99.20
2017-07-10T02:05:42.495Z,98.50
2017-07-10T02:08:09.998Z,98.20
2017-07-10T02:10:37.579Z,98.10
2017-07-10T02:13:05.086Z,98.60
2017-07-10T02:15:32.604Z,98.30
2017-07-10T02:18:00.103Z,99.10
2017-07-10T02:20:28.024Z,99.00
2017-07-10T02:22:55.521Z,99.10
2017-07-10T02:25:23.043Z,98.30
2017-07-10T02:27:51.511Z,99.10
2017-07-10T02:30:19.017Z,99.10
2017-07-10T02:32:46.778Z,99.50
2017-07-10T02:35:14.306Z,99.50
2017-07-10T02:37:41.799Z,98.80
2017-07-10T02:40:09.299Z,98.70
2017-07-10T02:42:36.816Z,99.00
2017-07-10T02:45:04.583Z,99.20
2017-07-10T02:47:32.094Z,99.30
2017-07-10T02:49:59.652Z,98.00
2017-07-10T02:52:27.172Z,99.00
2017-07-10T02:54:54.756Z,98.70
2017-07-10T02:57:22.273Z,98.60
2017-07-10T02:59:49.774Z,99.00
2017-07-10T03:02:17.303Z,98.30
2017-07-10T03:04:44.816Z,98.70
2017-07-10T03:07:12.341Z,98.00
2017-07-10T03:09:39.863Z,98.60
2017-07-10T03:12:07.383Z,98.80
2017-07-10T03:14:34.886Z,98.40
2017-07-10T03:17:02.651Z,98.70
2017-07-10T03:19:30.162Z,96.50
2017-07-10T03:21:57.675Z,98.40
2017-07-10T03:24:25.171Z,96.80
2017-07-10T03:26:52.711Z,98.90
2017-07-10T03:29:21.360Z,98.40
2017-07-10T03:31:48.863Z,98.40
2017-07-10T03:34:17.136Z,99.60
2017-07-10T03:36:44.658Z,99.60
2017-07-10T03:39:12.154Z,97.60
2017-07-10T03:41:40.773Z,97.60
2017-07-10T03:44:08.290Z,97.50
2017-07-10T03:46:35.903Z,99.40
2017-07-10T03:49:03.426Z,98.00
2017-07-10T03:51:30.952Z,98.10
2017-07-10T03:53:58.726Z,96.50
2017-07-10T03:56:26.238Z,98.70
2017-07-10T03:58:53.751Z,97.00
2017-07-10T04:01:21.277Z,98.80
2017-07-10T04:03:48.765Z,97.80
2017-07-10T04:06:17.568Z,96.90
2017-07-10T04:08:45.096Z,98.70
2017-07-10T04:11:12.625Z,98.10
2017-07-10T04:13:40.134Z,98.00
2017-07-10T04:16:07.641Z,97.80
2017-07-10T04:18:35.504Z,97.30
2017-07-10T04:21:03.073Z,97.90
2017-07-10T04:23:30.582Z,98.10
2017-07-10T04:25:58.127Z,97.70
2017-07-10T04:28:25.630Z,98.10
2017-07-10T04:30:53.423Z,98.30
2017-07-10T04:33:20.915Z,98.50
2017-07-10T04:35:48.406Z,98.20
2017-07-10T04:38:16.695Z,97.50
2017-07-10T04:40:44.206Z,97.50
2017-07-10T04:43:12.038Z,97.00
2017-07-10T04:45:39.557Z,96.70
2017-07-10T04:48:07.297Z,96.30
2017-07-10T04:50:35.494Z,96.50
2017-07-10T04:53:03.002Z,96.80
2017-07-10T04:55:30.862Z,97.00
2017-07-10T04:57:59.699Z,97.30
2017-07-10T05:00:28.030Z,97.70
2017-07-10T05:02:56.099Z,97.50
2017-07-10T05:05:23.605Z,97.80
2017-07-10T05:07:51.099Z,97.90
2017-07-10T05:10:18.628Z,97.00
2017-07-10T05:12:46.137Z,97.30
2017-07-10T05:15:13.658Z,97.20
2017-07-10T05:17:41.456Z,97.10
2017-07-10T05:20:09.001Z,96.40
2017-07-10T05:22:36.518Z,96.50
2017-07-10T05:25:04.351Z,97.10
2017-07-10T05:27:31.846Z,96.60
2017-07-10T05:30:00.132Z,97.50
2017-07-10T05:32:27.656Z,97.10
2017-07-10T05:34:55.157Z,97.40
2017-07-10T05:37:22.961Z,96.50
2017-07-10T05:39:50.483Z,97.30
2017-07-10T05:42:17.989Z,96.60
2017-07-10T05:44:45.527Z,97.20
2017-07-10T05:47:13.051Z,97.40
2017-07-10T05:49:40.847Z,97.50
2017-07-10T05:52:08.370Z,97.60
2017-07-10T05:54:35.880Z,97.10
2017-07-10T05:57:03.445Z,97.00
2017-07-10T05:59:30.951Z,97.00
2017-07-10T06:01:59.540Z,96.90
2017-07-10T06:04:27.045Z,96.30
2017-07-10T06:06:54.546Z,96.40
2017-07-10T06:09:22.064Z,96.10
2017-07-10T06:11:49.565Z,96.00
2017-07-10T06:14:17.387Z,95.80
2017-07-10T06:16:44.877Z,96.50
2017-07-10T06:19:12.382Z,96.00
2017-07-10T06:21:39.925Z,96.30
2017-07-10T06:24:08.197Z,96.20
2017-07-10T06:26:36.009Z,96.20
2017-07-10T06:29:03.530Z,96.20
2017-07-10T06:31:31.033Z,96.40
2017-07-10T06:33:58.574Z,96.50
2017-07-10T06:36:26.068Z,96.70
2017-07-10T06:38:53.858Z,96.60
2017-07-10T06:41:21.472Z,96.50
2017-07-10T06:43:48.969Z,96.30
2017-07-10T06:46:16.475Z,96.30
2017-07-10T06:48:44.002Z,96.10
2017-07-10T06:51:11.828Z,95.90
2017-07-10T06:53:39.348Z,96.00
2017-07-10T06:56:06.853Z,95.90
2017-07-10T06:58:34.447Z,95.90
2017-07-10T07:01:02.712Z,96.40
2017-07-10T07:03:30.521Z,96.10
2017-07-10T07:05:58.023Z,96.20
2017-07-10T07:08:25.531Z,95.70
2017-07-10T07:10:53.055Z,96.50
2017-07-10T07:13:20.565Z,96.80
2017-07-10T07:15:48.351Z,96.40
2017-07-10T07:18:15.893Z,96.00
2017-07-10T07:20:43.409Z,96.20
2017-07-10T07:23:10.927Z,95.90
2017-07-10T07:25:38.445Z,95.80
2017-07-10T07:28:07.032Z,96.10
2017-07-10T07:30:34.521Z,96.10
2017-07-10T07:33:02.076Z,95.90
2017-07-10T07:35:29.609Z,96.10
2017-07-10T07:37:57.103Z,96.10
2017-07-10T07:40:24.946Z,95.50
2017-07-10T07:42:52.475Z,95.50
2017-07-10T07:45:20.081Z,95.50
2017-07-10T07:47:47.590Z,95.80
2017-07-10T07:50:15.107Z,95.40
2017-07-10T07:52:42.966Z,95.50
2017-07-10T07:55:10.478Z,95.80
2017-07-10T07:57:37.972Z,95.80
2017-07-10T08:00:05.486Z,95.60
2017-07-10T08:02:33.005Z,95.70
2017-07-10T08:05:00.872Z,95.70
2017-07-10T08:07:28.391Z,95.70
2017-07-10T08:09:56.704Z,96.40
2017-07-10T08:12:24.225Z,96.30
2017-07-10T08:14:52.492Z,96.30
2017-07-10T08:17:21.061Z,96.40
2017-07-10T08:19:48.672Z,96.40
2017-07-10T08:22:16.169Z,96.50
2017-07-10T08:24:43.705Z,96.90
2017-07-10T08:27:11.211Z,97.80
2017-07-10T08:29:38.997Z,97.40
2017-07-10T08:32:07.267Z,97.60
2017-07-10T08:34:35.581Z,97.50
2017-07-10T08:37:03.098Z,97.50
2017-07-10T08:39:30.636Z,97.50
2017-07-10T08:41:58.575Z,97.50
2017-07-10T08:44:26.091Z,98.00
2017-07-10T08:46:54.373Z,98.70
2017-07-10T08:49:22.665Z,99.60
2017-07-10T08:51:50.188Z,99.60
2017-07-10T08:54:17.965Z,99.90
2017-07-10T08:56:45.485Z,99.90
2017-07-10T08:59:12.999Z,99.90
2017-07-10T09:01:41.268Z,99.90
2017-07-10T09:04:09.580Z,99.90
2017-07-10T09:06:37.550Z,99.90
2017-07-10T09:09:05.045Z,99.90
2017-07-10T09:11:32.566Z,99.90
2017-07-10T09:14:00.082Z,99.90
2017-07-10T09:16:27.685Z,99.90
2017-07-10T09:18:55.542Z,99.90
2017-07-10T09:21:23.117Z,99.90
2017-07-10T09:23:50.643Z,99.90
2017-07-10T09:26:18.950Z,99.90
2017-07-10T09:28:46.473Z,99.90
2017-07-10T09:31:15.094Z,99.90
2017-07-10T09:33:42.606Z,99.90
2017-07-10T09:36:10.128Z,99.90
2017-07-10T09:38:37.640Z,99.90
2017-07-10T09:41:05.923Z,99.90
2017-07-10T09:43:33.803Z,99.90
2017-07-10T09:46:01.322Z,99.90
2017-07-10T09:48:28.834Z,99.90
2017-07-10T09:50:58.905Z,99.90
2017-07-10T09:53:27.174Z,99.90
2017-07-10T09:55:55.111Z,99.90
2017-07-10T09:58:22.616Z,99.90
2017-07-10T10:00:50.219Z,99.90
2017-07-10T10:03:17.735Z,99.90
2017-07-10T10:05:45.337Z,99.90
2017-07-10T10:08:13.194Z,99.90
2017-07-10T10:10:40.726Z,99.90
2017-07-10T10:13:08.244Z,99.90
2017-07-10T10:15:35.765Z,99.90
2017-07-10T10:18:03.276Z,99.90
2017-07-10T10:20:31.094Z,99.90
2017-07-10T10:22:58.606Z,99.90
2017-07-10T10:25:26.102Z,99.90
2017-07-10T10:27:53.629Z,99.90
2017-07-10T10:30:21.163Z,99.90
2017-07-10T10:32:48.997Z,99.90
2017-07-10T10:35:16.568Z,99.90
2017-07-10T10:37:44.129Z,99.90
2017-07-10T10:40:11.668Z,99.90
2017-07-10T10:42:39.187Z,99.90
2017-07-10T10:45:06.968Z,99.90
2017-07-10T10:47:34.500Z,99.90
2017-07-10T10:50:02.011Z,99.90
2017-07-10T10:52:29.533Z,99.90
2017-07-10T10:54:57.031Z,99.90
2017-07-10T10:57:24.919Z,99.90
2017-07-10T10:59:52.444Z,99.90
2017-07-10T11:02:20.718Z,99.90
2017-07-10T11:04:49.015Z,99.90
2017-07-10T11:07:16.529Z,99.90
2017-07-10T11:09:44.369Z,99.90
2017-07-10T11:12:11.901Z,99.90
2017-07-10T11:14:43.164Z,99.90
2017-07-10T11:17:10.689Z,99.90
2017-07-10T11:19:38.956Z,99.90
2017-07-10T11:22:07.516Z,99.90
2017-07-10T11:24:35.945Z,99.90
2017-07-10T11:27:04.693Z,99.90
2017-07-10T11:29:32.217Z,99.90
2017-07-10T11:31:59.735Z,99.90
2017-07-10T11:34:28.333Z,99.90
2017-07-10T11:36:55.855Z,99.90
2017-07-10T11:39:23.361Z,99.90
2017-07-10T11:41:50.866Z,99.90
2017-07-10T11:44:18.375Z,99.90
2017-07-10T11:46:46.251Z,99.90
2017-07-10T11:49:13.753Z,99.90
2017-07-10T11:51:41.309Z,99.90
2017-07-10T11:54:08.936Z,99.90
2017-07-10T11:56:36.434Z,99.90
2017-07-10T11:59:03.928Z,99.90
2017-07-10T12:01:31.849Z,99.90
2017-07-10T12:03:59.355Z,99.90
2017-07-10T12:06:26.856Z,99.90
2017-07-10T12:08:54.363Z,99.90
2017-07-10T12:11:21.895Z,99.90
2017-07-10T12:13:49.722Z,99.90
2017-07-10T12:16:17.231Z,99.90
2017-07-10T12:18:44.744Z,99.90
2017-07-10T12:21:12.277Z,99.90
2017-07-10T12:23:39.782Z,99.90
2017-07-10T12:26:07.744Z,99.90
2017-07-10T12:28:35.289Z,99.90
2017-07-10T12:31:02.796Z,99.90
2017-07-10T12:33:30.336Z,99.90
2017-07-10T12:35:57.857Z,99.90
2017-07-10T12:38:25.634Z,99.90
2017-07-10T12:40:53.160Z,99.90
2017-07-10T12:43:21.440Z,99.90
2017-07-10T12:45:49.744Z,99.90
2017-07-10T12:48:17.305Z,99.90
2017-07-10T12:50:45.163Z,99.90
2017-07-10T12:53:12.672Z,99.90
2017-07-10T12:55:40.179Z,99.90
2017-07-10T12:58:07.698Z,99.90
2017-07-10T13:00:35.210Z,99.90
2017-07-10T13:03:03.000Z,99.90
2017-07-10T13:05:30.521Z,99.90
2017-07-10T13:07:58.039Z,99.90
2017-07-10T13:10:25.573Z,99.90
2017-07-10T13:12:53.113Z,99.90
2017-07-10T13:15:20.978Z,99.90
2017-07-10T13:17:48.490Z,99.90
2017-07-10T13:20:16.007Z,99.90
2017-07-10T13:22:43.567Z,99.90
2017-07-10T13:25:11.071Z,99.90
2017-07-10T13:27:38.910Z,99.90
2017-07-10T13:30:06.422Z,99.90
2017-07-10T13:32:33.962Z,99.90
2017-07-10T13:35:02.261Z,99.90
2017-07-10T13:37:29.785Z,99.90
2017-07-10T13:39:57.601Z,99.90
2017-07-10T13:42:25.110Z,99.90
2017-07-10T13:44:52.632Z,99.90
2017-07-10T13:47:20.196Z,99.90
2017-07-10T13:49:47.707Z,99.90
2017-07-10T13:52:16.426Z,99.90
2017-07-10T13:54:43.975Z,99.90
2017-07-10T13:57:11.527Z,99.90
2017-07-10T13:59:39.070Z,99.90
2017-07-10T14:02:06.582Z,99.90
2017-07-10T14:04:34.368Z,99.90
2017-07-10T14:07:01.887Z,99.90
2017-07-10T14:09:29.405Z,99.90
2017-07-10T14:12:07.242Z,99.90
2017-07-10T14:17:27.522Z,99.90
2017-07-10T14:19:55.035Z,99.90
2017-07-10T14:22:22.557Z,99.90
2017-07-10T14:24:50.097Z,99.90
2017-07-10T14:27:17.623Z,99.90
2017-07-10T14:29:45.424Z,99.90
2017-07-10T14:32:12.921Z,99.90
2017-07-10T14:34:40.447Z,99.90
2017-07-10T14:37:07.974Z,99.90
2017-07-10T14:39:35.484Z,99.90
2017-07-10T14:42:03.274Z,99.90
2017-07-10T14:44:30.796Z,99.90
2017-07-10T14:46:58.306Z,99.90
2017-07-10T14:49:25.832Z,99.90
2017-07-10T14:51:53.338Z,99.90
2017-07-10T14:54:21.107Z,99.90
2017-07-10T14:56:48.630Z,99.90
2017-07-10T14:59:16.143Z,99.90
2017-07-10T15:01:43.652Z,99.90
2017-07-10T15:04:11.165Z,99.90
2017-07-10T15:06:38.961Z,99.90
2017-07-10T15:09:06.488Z,99.90
2017-07-10T15:11:33.998Z,99.90
2017-07-10T15:14:01.531Z,99.90
2017-07-10T15:16:29.068Z,99.90
2017-07-10T15:18:57.206Z,99.90
2017-07-10T15:21:24.724Z,99.90
2017-07-10T15:23:52.327Z,99.90
2017-07-10T15:26:19.868Z,99.90
2017-07-10T15:28:47.452Z,99.90
2017-07-10T15:31:15.240Z,99.90
2017-07-10T15:33:42.756Z,99.90
2017-07-10T15:36:10.265Z,99.90
2017-07-10T15:38:37.811Z,99.90
2017-07-10T15:41:05.333Z,99.90
2017-07-10T15:43:33.126Z,99.90
2017-07-10T15:46:00.668Z,99.90
2017-07-10T15:48:28.279Z,99.90
2017-07-10T15:50:55.806Z,99.90
2017-07-10T15:53:23.305Z,99.90
2017-07-10T15:55:51.103Z,99.90
2017-07-10T15:58:18.610Z,99.90
2017-07-10T16:00:46.123Z,99.90
2017-07-10T16:03:13.642Z,99.90
2017-07-10T16:05:41.174Z,99.90
2017-07-10T16:08:08.963Z,99.90
2017-07-10T16:10:36.546Z,99.90
2017-07-10T16:13:04.058Z,99.90
2017-07-10T16:15:31.583Z,99.90
2017-07-10T16:17:59.110Z,99.90
2017-07-10T16:20:26.909Z,99.90
2017-07-10T16:22:54.403Z,99.90
2017-07-10T16:25:21.909Z,99.90
2017-07-10T16:27:49.430Z,99.90
2017-07-10T16:30:16.953Z,99.90
2017-07-10T16:32:44.737Z,99.90
2017-07-10T16:35:12.265Z,99.90
2017-07-10T16:37:39.822Z,99.90
2017-07-10T16:40:07.383Z,99.90
2017-07-10T16:42:34.913Z,99.90
2017-07-10T16:45:02.694Z,99.90
2017-07-10T16:47:30.209Z,99.90
2017-07-10T16:49:57.732Z,99.90
2017-07-10T16:52:25.255Z,99.90
2017-07-10T16:54:52.783Z,99.90
2017-07-10T16:57:20.577Z,99.90
2017-07-10T16:59:48.085Z,99.90
2017-07-10T17:02:15.603Z,98.30
2017-07-10T17:04:43.126Z,95.50
2017-07-10T17:07:10.638Z,95.20
2017-07-10T17:09:38.433Z,93.10
2017-07-10T17:12:05.948Z,92.70
2017-07-10T17:14:33.471Z,90.00
2017-07-10T17:17:01.016Z,86.90
2017-07-10T17:19:28.531Z,86.30
2017-07-10T17:21:56.327Z,84.90
2017-07-10T17:24:23.840Z,79.30
2017-07-10T17:26:51.372Z,77.80
2017-07-10T17:29:18.891Z,76.80
2017-07-10T17:31:46.406Z,77.30
2017-07-10T17:34:14.222Z,83.00
2017-07-10T17:36:41.731Z,87.60
2017-07-10T17:39:09.240Z,91.80
2017-07-10T17:41:36.775Z,94.50
2017-07-10T17:44:04.351Z,96.60
2017-07-10T17:46:32.143Z,98.20
2017-07-10T17:48:59.636Z,94.50
2017-07-10T17:51:27.142Z,90.80
2017-07-10T17:53:54.663Z,84.90
2017-07-10T17:56:22.185Z,79.90
2017-07-10T17:58:49.983Z,77.80
2017-07-10T18:01:17.498Z,76.50
2017-07-10T18:03:45.044Z,74.70
2017-07-10T18:06:12.627Z,77.30
2017-07-10T18:08:40.179Z,79.40
2017-07-10T18:11:07.940Z,82.20
2017-07-10T18:13:35.442Z,86.80
2017-07-10T18:16:02.950Z,90.70
2017-07-10T18:18:30.487Z,92.10
2017-07-10T18:20:58.024Z,94.20
2017-07-10T18:23:25.792Z,95.90
2017-07-10T18:25:53.315Z,96.90
2017-07-10T18:28:20.842Z,98.10
2017-07-10T18:30:48.379Z,99.30
2017-07-10T18:33:15.891Z,99.90
2017-07-10T18:35:43.679Z,99.90
2017-07-10T18:38:11.189Z,99.90
2017-07-10T18:40:38.713Z,99.90
2017-07-10T18:43:06.509Z,99.90
2017-07-10T18:45:34.048Z,99.90
2017-07-10T18:48:01.594Z,99.90
2017-07-10T18:50:29.404Z,99.90
2017-07-10T18:52:56.928Z,99.90
2017-07-10T18:55:24.478Z,99.90
2017-07-10T18:57:52.001Z,99.90
2017-07-10T19:00:19.519Z,99.90
2017-07-10T19:02:47.312Z,99.90
2017-07-10T19:05:14.860Z,99.90
2017-07-10T19:07:42.398Z,99.90
2017-07-10T19:10:09.949Z,99.90
2017-07-10T19:12:37.474Z,99.90
2017-07-10T19:15:05.257Z,99.90
2017-07-10T19:17:32.781Z,99.90
2017-07-10T19:20:00.284Z,99.90
2017-07-10T19:22:27.820Z,99.90
2017-07-10T19:24:55.335Z,99.90
2017-07-10T19:27:23.118Z,99.90
2017-07-10T19:29:50.640Z,99.90
2017-07-10T19:32:18.172Z,99.90
2017-07-10T19:34:45.698Z,99.90
2017-07-10T19:37:13.225Z,99.90
2017-07-10T19:39:44.259Z,99.90
2017-07-10T19:42:11.822Z,99.90
2017-07-10T19:44:39.336Z,99.90
2017-07-10T19:47:06.865Z,99.90
2017-07-10T19:49:34.372Z,99.90
2017-07-10T19:52:02.161Z,99.90
2017-07-10T19:54:29.687Z,99.90
2017-07-10T19:56:57.207Z,99.90
2017-07-10T19:59:24.749Z,99.90
2017-07-10T20:01:52.268Z,99.90
2017-07-10T20:04:20.144Z,99.90
2017-07-10T20:06:48.029Z,99.90
2017-07-10T20:09:16.200Z,99.90
2017-07-10T20:11:43.798Z,99.90
2017-07-10T20:14:13.381Z,99.90
2017-07-10T20:16:41.201Z,99.90
2017-07-10T20:19:08.751Z,99.90
2017-07-10T20:21:36.363Z,99.90
2017-07-10T20:24:04.037Z,99.90
2017-07-10T20:26:32.657Z,99.90
2017-07-10T20:29:00.781Z,99.90
2017-07-10T20:31:28.469Z,99.90
2017-07-10T20:33:56.160Z,99.90
2017-07-10T20:36:27.645Z,99.90
2017-07-10T20:38:55.386Z,99.90
2017-07-10T20:41:23.356Z,99.90
2017-07-10T20:43:51.447Z,99.90
2017-07-10T20:46:19.058Z,99.90
2017-07-10T20:48:46.639Z,99.90
2017-07-10T20:51:14.151Z,99.90
2017-07-10T20:53:42.093Z,99.90
2017-07-10T20:56:09.627Z,99.90
2017-07-10T20:58:37.148Z,99.90
2017-07-10T21:01:04.724Z,99.90
2017-07-10T21:03:32.309Z,99.90
2017-07-10T21:06:00.229Z,99.90
2017-07-10T21:08:27.908Z,99.90
2017-07-10T21:10:55.626Z,99.90
2017-07-10T21:13:23.292Z,99.90
2017-07-10T21:15:50.883Z,99.90
2017-07-10T21:18:18.808Z,99.90
2017-07-10T21:20:46.435Z,99.90
2017-07-10T21:23:14.080Z,99.90
2017-07-10T21:25:41.659Z,99.90
2017-07-10T21:28:09.577Z,99.90
2017-07-10T21:30:37.528Z,99.90
2017-07-10T21:33:05.164Z,99.90
2017-07-10T21:35:32.888Z,99.90
2017-07-10T21:38:00.503Z,99.90
2017-07-10T21:40:28.232Z,99.90
2017-07-10T21:42:56.186Z,99.90
2017-07-10T21:45:23.857Z,99.90
2017-07-10T21:47:51.539Z,99.90
2017-07-10T21:50:19.209Z,99.90
2017-07-10T21:52:46.909Z,99.90
2017-07-10T21:55:14.799Z,99.90
2017-07-10T21:57:43.208Z,99.90
2017-07-10T22:00:10.871Z,99.90
2017-07-10T22:02:38.559Z,99.90
2017-07-10T22:05:06.273Z,99.90
2017-07-10T22:07:34.335Z,99.90
2017-07-10T22:10:02.061Z,99.90
2017-07-10T22:12:29.583Z,99.90
2017-07-10T22:14:57.113Z,99.90
2017-07-10T22:17:24.623Z,99.90
2017-07-10T22:19:52.408Z,99.90
2017-07-10T22:22:19.910Z,99.90
2017-07-10T22:24:47.434Z,99.90
2017-07-10T22:27:14.967Z,99.90
2017-07-10T22:29:42.506Z,99.90
2017-07-10T22:32:10.300Z,99.90
2017-07-10T22:34:37.813Z,99.90
2017-07-10T22:37:05.369Z,99.90
2017-07-10T22:39:32.889Z,99.90
2017-07-10T22:42:00.411Z,99.90
2017-07-10T22:44:28.401Z,99.90
2017-07-10T22:46:56.036Z,99.90
2017-07-10T22:49:23.550Z,99.90
2017-07-10T22:51:51.088Z,99.90
2017-07-10T22:54:18.948Z,99.90
2017-07-10T22:56:46.752Z,99.90
2017-07-10T22:59:14.255Z,99.90
2017-07-10T23:01:41.771Z,99.90
2017-07-10T23:04:09.301Z,99.90
2017-07-10T23:06:36.816Z,99.90
2017-07-10T23:09:04.424Z,99.90
2017-07-10T23:11:31.920Z,99.90
2017-07-10T23:13:59.725Z,99.90
2017-07-10T23:16:27.240Z,99.90
2017-07-10T23:18:54.789Z,99.90
2017-07-10T23:21:22.602Z,99.90
2017-07-10T23:23:50.307Z,99.90
2017-07-10T23:26:17.891Z,99.90
2017-07-10T23:28:45.683Z,99.90
2017-07-10T23:31:13.207Z,99.90
2017-07-10T23:33:40.726Z,99.90
2017-07-10T23:36:08.502Z,99.90
2017-07-10T23:38:36.019Z,99.90
2017-07-10T23:41:03.541Z,99.90
2017-07-10T23:43:31.334Z,99.90
2017-07-10T23:45:58.842Z,99.90
2017-07-10T23:48:26.362Z,99.90
2017-07-10T23:50:54.165Z,99.90
2017-07-10T23:53:21.700Z,99.90
2017-07-10T23:55:49.206Z,99.90
2017-07-10T23:58:16.996Z,99.90
